Time;durP1;ratioP1;P1;durP2;ratioP2;P2;SDS_P1;SDS_P2;PMS_P1;PMS_P2;Temp;Humidity;BMP_temperature;BMP_pressure;BME280_temperature;BME280_humidity;BME280_pressure;Samples;Min_cycle;Max_cycle;Signal;HPM_P1;HPM_P2
2022/06/23 00:00:18;;;;;;;10.90;9.90;;;;;;;;;;5126851;27;20732;-75
2022/06/23 00:02:46;;;;;;;10.57;8.83;;;;;;;;;;5120189;27;20284;-75
2022/06/23 00:05:15;;;;;;;13.70;8.57;;;;;;;;;;5117155;27;20249;-75
2022/06/23 00:07:45;;;;;;;8.90;7.93;;;;;;;;;;5116585;27;20194;-75
2022/06/23 00:10:16;;;;;;;9.10;7.83;;;;;;;;;;5120880;27;20366;-75
2022/06/23 00:12:44;;;;;;;9.57;8.33;;;;;;;;;;5125168;27;20300;-75
2022/06/23 00:15:37;;;;;;;9.93;8.50;;;;;;;;;;5124569;27;20231;-75
2022/06/23 00:18:06;;;;;;;11.30;9.67;;;;;;;;;;5114812;28;20317;-75
2022/06/23 00:20:35;;;;;;;11.93;10.00;;;;;;;;;;5114054;28;21741;-75
2022/06/23 00:23:07;;;;;;;12.33;10.30;;;;;;;;;;5120923;27;20283;-75
2022/06/23 00:25:41;;;;;;;15.13;11.13;;;;;;;;;;5129112;27;20699;-75
2022/06/23 00:28:14;;;;;;;16.73;10.70;;;;;;;;;;5132129;27;20287;-75
2022/06/23 00:30:43;;;;;;;11.47;10.20;;;;;;;;;;5130958;27;20280;-75
2022/06/23 00:33:16;;;;;;;16.93;11.90;;;;;;;;;;5134718;27;20320;-75
2022/06/23 00:35:44;;;;;;;16.87;11.40;;;;;;;;;;5129005;27;20755;-75
2022/06/23 00:38:18;;;;;;;18.07;11.93;;;;;;;;;;5123597;27;20233;-75
2022/06/23 00:40:45;;;;;;;26.63;13.07;;;;;;;;;;5124395;27;20283;-75
2022/06/23 00:43:12;;;;;;;15.63;11.67;;;;;;;;;;5125381;27;20263;-75
2022/06/23 00:45:42;;;;;;;21.40;14.43;;;;;;;;;;5113342;28;20257;-75
2022/06/23 00:48:13;;;;;;;18.17;13.23;;;;;;;;;;5126320;27;20280;-75
2022/06/23 00:50:47;;;;;;;19.37;14.20;;;;;;;;;;5123408;27;20271;-75
2022/06/23 00:53:17;;;;;;;17.90;14.37;;;;;;;;;;5114809;27;20621;-75
2022/06/23 00:55:47;;;;;;;23.97;15.23;;;;;;;;;;5114777;27;20292;-75
2022/06/23 00:58:23;;;;;;;18.53;15.17;;;;;;;;;;5116489;27;20555;-75
2022/06/23 01:00:52;;;;;;;20.92;15.27;;;;;;;;;;5116826;27;20201;-75
2022/06/23 01:03:23;;;;;;;26.02;15.32;;;;;;;;;;5134364;27;20645;-75
2022/06/23 01:05:53;;;;;;;22.80;15.77;;;;;;;;;;5114065;27;20312;-75
2022/06/23 01:08:23;;;;;;;20.60;15.43;;;;;;;;;;5112977;28;20292;-75
2022/06/23 01:10:54;;;;;;;18.57;16.17;;;;;;;;;;5126136;27;20252;-75
2022/06/23 01:13:27;;;;;;;24.92;16.48;;;;;;;;;;5122396;27;20328;-75
2022/06/23 01:15:56;;;;;;;21.27;16.40;;;;;;;;;;5115577;27;20744;-75
2022/06/23 01:18:27;;;;;;;19.38;15.63;;;;;;;;;;5117135;27;20290;-75
2022/06/23 01:20:56;;;;;;;20.07;15.53;;;;;;;;;;5115624;27;20236;-75
2022/06/23 01:23:35;;;;;;;22.87;16.87;;;;;;;;;;5111847;28;20279;-75
2022/06/23 01:26:11;;;;;;;20.15;15.38;;;;;;;;;;5112719;28;20633;-75
2022/06/23 01:28:40;;;;;;;20.03;15.60;;;;;;;;;;5112604;28;20193;-75
2022/06/23 01:31:12;;;;;;;17.17;15.35;;;;;;;;;;5112476;28;20205;-75
2022/06/23 01:33:42;;;;;;;20.53;15.90;;;;;;;;;;5101115;28;20213;-75
2022/06/23 01:36:14;;;;;;;21.83;16.27;;;;;;;;;;5112969;28;20229;-75
2022/06/23 01:38:47;;;;;;;17.93;15.23;;;;;;;;;;5122983;27;20277;-75
2022/06/23 01:41:17;;;;;;;19.17;16.27;;;;;;;;;;5112605;28;20289;-75
2022/06/23 01:43:51;;;;;;;21.10;16.60;;;;;;;;;;5112435;28;20225;-75
2022/06/23 01:46:22;;;;;;;21.53;17.17;;;;;;;;;;5112843;28;20201;-75
2022/06/23 01:48:52;;;;;;;20.05;15.88;;;;;;;;;;5112211;28;20630;-75
2022/06/23 01:51:21;;;;;;;21.00;16.20;;;;;;;;;;5112308;28;20292;-75
2022/06/23 01:53:48;;;;;;;19.00;15.33;;;;;;;;;;5111945;28;20312;-75
2022/06/23 01:56:27;;;;;;;20.55;16.83;;;;;;;;;;5112265;28;20398;-75
2022/06/23 01:58:59;;;;;;;23.17;16.23;;;;;;;;;;5111981;28;20200;-75
2022/06/23 02:01:31;;;;;;;23.77;17.40;;;;;;;;;;5112056;27;20225;-75
2022/06/23 02:04:02;;;;;;;23.73;17.23;;;;;;;;;;5093521;28;20280;-75
2022/06/23 02:06:32;;;;;;;22.63;18.60;;;;;;;;;;5147351;27;20232;-75
2022/06/23 02:09:04;;;;;;;23.53;18.60;;;;;;;;;;5133239;27;20284;-75
2022/06/23 02:11:38;;;;;;;26.23;18.03;;;;;;;;;;5129232;27;20201;-75
2022/06/23 02:14:12;;;;;;;25.35;18.40;;;;;;;;;;5125592;27;20320;-75
2022/06/23 02:16:41;;;;;;;28.43;19.80;;;;;;;;;;5132651;27;20200;-75
2022/06/23 02:19:13;;;;;;;29.80;19.30;;;;;;;;;;5132341;27;20283;-75
2022/06/23 02:21:45;;;;;;;25.70;18.60;;;;;;;;;;5131928;27;20359;-75
2022/06/23 02:24:16;;;;;;;24.45;18.27;;;;;;;;;;5118773;27;20284;-75
2022/06/23 02:26:56;;;;;;;26.55;17.40;;;;;;;;;;5131480;27;20275;-75
2022/06/23 02:29:27;;;;;;;28.13;17.50;;;;;;;;;;5132713;27;20292;-75
2022/06/23 02:31:57;;;;;;;28.43;16.97;;;;;;;;;;5131410;27;20191;-75
2022/06/23 02:34:26;;;;;;;20.77;16.30;;;;;;;;;;5131979;27;20311;-75
2022/06/23 02:37:01;;;;;;;20.48;15.88;;;;;;;;;;5132189;27;20235;-75
2022/06/23 02:39:31;;;;;;;25.60;17.10;;;;;;;;;;5124804;28;20192;-75
2022/06/23 02:42:01;;;;;;;24.07;15.30;;;;;;;;;;5131514;27;20225;-75
2022/06/23 02:44:38;;;;;;;21.23;15.00;;;;;;;;;;5140884;27;20315;-75
2022/06/23 02:47:23;;;;;;;19.43;13.63;;;;;;;;;;5134451;27;20283;-75
2022/06/23 02:50:08;;;;;;;20.77;14.65;;;;;;;;;;5132286;27;20280;-75
2022/06/23 02:52:51;;;;;;;21.57;14.03;;;;;;;;;;5134906;27;20224;-75
2022/06/23 02:55:29;;;;;;;18.13;13.63;;;;;;;;;;5135884;27;20669;-75
2022/06/23 02:58:00;;;;;;;19.60;12.50;;;;;;;;;;5136381;27;20228;-75
2022/06/23 03:00:32;;;;;;;17.63;12.23;;;;;;;;;;5134910;27;20308;-75
2022/06/23 03:03:04;;;;;;;16.83;11.67;;;;;;;;;;5142368;27;20625;-75
2022/06/23 03:05:35;;;;;;;17.00;12.27;;;;;;;;;;5129540;27;20317;-75
2022/06/23 03:08:05;;;;;;;15.20;12.00;;;;;;;;;;5115100;28;20233;-75
2022/06/23 03:10:35;;;;;;;12.93;10.20;;;;;;;;;;5115001;27;20732;-75
2022/06/23 03:13:07;;;;;;;12.43;10.20;;;;;;;;;;5115425;28;20253;-75
2022/06/23 03:15:37;;;;;;;12.10;9.03;;;;;;;;;;5115791;28;20193;-75
2022/06/23 03:18:09;;;;;;;10.53;9.30;;;;;;;;;;5115949;28;20231;-75
2022/06/23 03:20:39;;;;;;;11.90;10.13;;;;;;;;;;5115825;28;20300;-75
2022/06/23 03:23:11;;;;;;;13.40;10.63;;;;;;;;;;5117962;27;20656;-75
2022/06/23 03:25:40;;;;;;;18.20;11.47;;;;;;;;;;5117581;27;20202;-75
2022/06/23 03:28:12;;;;;;;14.60;10.93;;;;;;;;;;5115276;27;20292;-75
2022/06/23 03:30:43;;;;;;;15.32;11.68;;;;;;;;;;5111042;28;20229;-75
2022/06/23 03:33:16;;;;;;;14.83;11.60;;;;;;;;;;5114373;27;20308;-75
2022/06/23 03:35:47;;;;;;;19.33;12.33;;;;;;;;;;5114269;28;20225;-75
2022/06/23 03:38:18;;;;;;;18.50;12.20;;;;;;;;;;5114585;28;20284;-75
2022/06/23 03:43:41;;;;;;;19.57;12.60;;;;;;;;;;5109579;28;20270;-75
2022/06/23 03:46:16;;;;;;;18.03;13.17;;;;;;;;;;5113976;28;20260;-75
2022/06/23 03:48:45;;;;;;;20.20;13.43;;;;;;;;;;5115308;28;20201;-75
2022/06/23 03:51:14;;;;;;;18.30;13.10;;;;;;;;;;5114485;28;20287;-75
2022/06/23 03:53:47;;;;;;;16.13;13.10;;;;;;;;;;5114819;28;20257;-75
2022/06/23 03:56:17;;;;;;;18.83;13.40;;;;;;;;;;5114236;27;20292;-75
2022/06/23 03:58:46;;;;;;;15.67;12.47;;;;;;;;;;5125763;27;20190;-75
2022/06/23 04:01:18;;;;;;;17.50;13.15;;;;;;;;;;5114417;28;20202;-75
2022/06/23 04:03:48;;;;;;;14.20;11.93;;;;;;;;;;5114584;28;20194;-75
2022/06/23 04:06:22;;;;;;;15.00;12.13;;;;;;;;;;5120412;27;20587;-75
2022/06/23 04:08:59;;;;;;;16.47;12.27;;;;;;;;;;5128697;27;20193;-75
2022/06/23 04:11:46;;;;;;;16.73;12.77;;;;;;;;;;5119101;27;20287;-75
2022/06/23 04:14:30;;;;;;;12.93;11.63;;;;;;;;;;5130565;27;20216;-75
2022/06/23 04:17:06;;;;;;;13.55;12.18;;;;;;;;;;5114591;28;20284;-75
2022/06/23 04:19:33;;;;;;;15.27;11.97;;;;;;;;;;5114144;28;20237;-75
2022/06/23 04:22:03;;;;;;;16.60;12.77;;;;;;;;;;5120096;27;20284;-75
2022/06/23 04:24:30;;;;;;;13.73;12.33;;;;;;;;;;5119112;27;20301;-75
2022/06/23 04:27:05;;;;;;;15.13;13.38;;;;;;;;;;5114109;27;20638;-75
2022/06/23 04:29:36;;;;;;;17.67;13.32;;;;;;;;;;5116835;27;20200;-75
2022/06/23 04:32:08;;;;;;;16.83;12.87;;;;;;;;;;5128190;27;20288;-75
2022/06/23 04:34:37;;;;;;;16.50;13.30;;;;;;;;;;5123669;27;20309;-75
2022/06/23 04:37:04;;;;;;;15.73;12.60;;;;;;;;;;5113709;28;20209;-75
2022/06/23 04:39:34;;;;;;;14.00;12.10;;;;;;;;;;5123002;27;20284;-75
2022/06/23 04:42:07;;;;;;;17.65;13.02;;;;;;;;;;5131916;27;20355;-75
2022/06/23 04:44:35;;;;;;;15.60;12.98;;;;;;;;;;5124679;27;20210;-75
2022/06/23 04:47:05;;;;;;;17.33;12.57;;;;;;;;;;5120355;27;20286;-75
2022/06/23 04:49:36;;;;;;;15.50;12.20;;;;;;;;;;5120971;27;20284;-75
2022/06/23 04:52:05;;;;;;;16.30;13.25;;;;;;;;;;5122024;27;20633;-75
2022/06/23 04:54:34;;;;;;;15.50;12.90;;;;;;;;;;5127224;27;20244;-75
2022/06/23 04:57:04;;;;;;;18.30;13.63;;;;;;;;;;5117685;27;21543;-74
2022/06/23 04:59:36;;;;;;;18.90;14.73;;;;;;;;;;5120469;27;20236;-75
2022/06/23 05:02:05;;;;;;;22.85;14.50;;;;;;;;;;5119741;27;20618;-75
2022/06/23 05:04:35;;;;;;;20.77;15.95;;;;;;;;;;5119600;27;20236;-76
2022/06/23 05:07:03;;;;;;;21.37;15.97;;;;;;;;;;5122583;27;20282;-76
2022/06/23 05:09:32;;;;;;;21.92;16.92;;;;;;;;;;5120681;27;20229;-75
2022/06/23 05:12:00;;;;;;;21.77;17.08;;;;;;;;;;5113348;27;20280;-75
2022/06/23 05:14:31;;;;;;;26.83;18.33;;;;;;;;;;5122035;27;20216;-75
2022/06/23 05:17:03;;;;;;;26.38;18.60;;;;;;;;;;5128838;27;20296;-75
2022/06/23 05:19:33;;;;;;;28.17;18.97;;;;;;;;;;5120796;27;20616;-75
2022/06/23 05:22:03;;;;;;;32.23;20.90;;;;;;;;;;5124346;27;20284;-74
2022/06/23 05:24:31;;;;;;;30.13;20.25;;;;;;;;;;5126436;27;20236;-75
2022/06/23 05:27:00;;;;;;;30.27;20.03;;;;;;;;;;5127316;27;20281;-77
2022/06/23 05:29:29;;;;;;;28.30;20.20;;;;;;;;;;5116069;27;20205;-75
2022/06/23 05:31:58;;;;;;;37.00;21.33;;;;;;;;;;5127608;27;20280;-77
2022/06/23 05:34:27;;;;;;;30.02;19.23;;;;;;;;;;5115047;27;20300;-76
2022/06/23 05:36:59;;;;;;;32.70;19.98;;;;;;;;;;5121421;27;20226;-76
2022/06/23 05:39:30;;;;;;;34.05;20.27;;;;;;;;;;5112967;28;20328;-76
2022/06/23 05:41:59;;;;;;;33.38;20.05;;;;;;;;;;5113370;27;20229;-76
2022/06/23 05:44:29;;;;;;;26.65;18.65;;;;;;;;;;5128999;27;20223;-76
2022/06/23 05:46:56;;;;;;;28.80;18.87;;;;;;;;;;5117121;27;20281;-76
2022/06/23 05:49:25;;;;;;;26.58;18.00;;;;;;;;;;5118560;27;20304;-76
2022/06/23 05:51:54;;;;;;;27.42;17.90;;;;;;;;;;5112212;28;20284;-76
2022/06/23 05:54:25;;;;;;;26.40;17.85;;;;;;;;;;5127013;27;20248;-76
2022/06/23 05:56:57;;;;;;;28.77;19.08;;;;;;;;;;5113403;27;20200;-77
2022/06/23 05:59:26;;;;;;;25.63;18.33;;;;;;;;;;5129726;27;20355;-77
2022/06/23 06:01:55;;;;;;;27.20;19.55;;;;;;;;;;5119254;27;20193;-76
2022/06/23 06:04:24;;;;;;;35.70;20.02;;;;;;;;;;5113414;27;20661;-76
2022/06/23 06:06:51;;;;;;;27.00;19.33;;;;;;;;;;5128057;27;20268;-77
2022/06/23 06:09:40;;;;;;;29.13;19.95;;;;;;;;;;5084892;27;20240;-77
2022/06/23 06:12:12;;;;;;;32.10;19.75;;;;;;;;;;5090350;27;20206;-77
2022/06/23 06:14:42;;;;;;;27.58;19.88;;;;;;;;;;5100645;27;20808;-78
2022/06/23 06:17:12;;;;;;;32.10;18.52;;;;;;;;;;5102147;27;20225;-77
2022/06/23 06:19:39;;;;;;;29.42;18.17;;;;;;;;;;5098207;28;20202;-77
2022/06/23 06:22:27;;;;;;;25.63;17.92;;;;;;;;;;5107015;27;20716;-77
2022/06/23 06:24:55;;;;;;;28.73;18.30;;;;;;;;;;5103164;28;20197;-78
2022/06/23 06:27:23;;;;;;;25.13;17.08;;;;;;;;;;5102510;28;20622;-77
2022/06/23 06:29:51;;;;;;;22.83;16.27;;;;;;;;;;5101442;27;20745;-77
2022/06/23 06:32:30;;;;;;;23.15;15.55;;;;;;;;;;5100291;28;20244;-77
2022/06/23 06:35:01;;;;;;;24.98;15.90;;;;;;;;;;5103351;28;20209;-76
2022/06/23 06:37:30;;;;;;;23.48;15.60;;;;;;;;;;5109464;27;20285;-76
2022/06/23 06:39:59;;;;;;;23.63;15.73;;;;;;;;;;5101893;28;20586;-76
2022/06/23 06:42:29;;;;;;;25.83;14.55;;;;;;;;;;5098406;28;20237;-75
2022/06/23 06:44:58;;;;;;;21.83;14.02;;;;;;;;;;5102231;28;20271;-76
2022/06/23 06:47:27;;;;;;;22.75;14.40;;;;;;;;;;5098267;28;20285;-75
2022/06/23 06:49:55;;;;;;;21.02;14.10;;;;;;;;;;5090961;28;20286;-75
2022/06/23 06:52:23;;;;;;;22.95;13.68;;;;;;;;;;5083352;28;20288;-75
2022/06/23 06:54:57;;;;;;;20.65;14.27;;;;;;;;;;5102626;28;20810;-75
2022/06/23 06:57:27;;;;;;;18.13;13.35;;;;;;;;;;5100009;28;20276;-74
2022/06/23 06:59:59;;;;;;;21.08;13.90;;;;;;;;;;5104750;28;20213;-75
2022/06/23 07:02:29;;;;;;;18.88;13.98;;;;;;;;;;5102895;28;20206;-76
2022/06/23 07:04:59;;;;;;;17.27;12.40;;;;;;;;;;5106559;28;20213;-75
2022/06/23 07:07:29;;;;;;;23.85;14.25;;;;;;;;;;5107403;28;20491;-77
2022/06/23 07:10:00;;;;;;;17.02;11.95;;;;;;;;;;5106783;28;20207;-77
2022/06/23 07:12:29;;;;;;;19.45;12.98;;;;;;;;;;5109245;28;20284;-77
2022/06/23 07:15:04;;;;;;;18.52;12.20;;;;;;;;;;5106631;28;20258;-77
2022/06/23 07:17:34;;;;;;;18.65;11.70;;;;;;;;;;5106648;28;20653;-77
2022/06/23 07:20:03;;;;;;;15.00;10.20;;;;;;;;;;5108585;28;20197;-77
2022/06/23 07:22:32;;;;;;;15.23;9.90;;;;;;;;;;5106103;28;20292;-77
2022/06/23 07:25:01;;;;;;;16.00;9.55;;;;;;;;;;5105085;28;20660;-77
2022/06/23 07:27:32;;;;;;;15.32;10.07;;;;;;;;;;5107056;28;20221;-77
2022/06/23 07:30:02;;;;;;;14.05;9.38;;;;;;;;;;5104465;28;20241;-77
2022/06/23 07:32:33;;;;;;;14.38;8.77;;;;;;;;;;5106321;28;20195;-77
2022/06/23 07:35:03;;;;;;;12.25;9.18;;;;;;;;;;5107681;28;20252;-77
2022/06/23 07:37:33;;;;;;;11.43;8.70;;;;;;;;;;5108076;28;20243;-76
2022/06/23 07:40:02;;;;;;;14.50;8.75;;;;;;;;;;5104961;28;20307;-78
2022/06/23 07:42:41;;;;;;;12.68;8.88;;;;;;;;;;5101938;28;20273;-77
2022/06/23 07:45:11;;;;;;;13.68;9.85;;;;;;;;;;5098730;28;20218;-77
2022/06/23 07:47:39;;;;;;;13.73;9.52;;;;;;;;;;5098141;28;20277;-77
2022/06/23 07:50:06;;;;;;;13.70;8.88;;;;;;;;;;5104020;27;20212;-77
2022/06/23 07:52:33;;;;;;;11.68;8.63;;;;;;;;;;5108275;28;20221;-77
2022/06/23 07:55:01;;;;;;;14.30;9.55;;;;;;;;;;5104449;28;20329;-78
2022/06/23 07:57:31;;;;;;;13.32;8.27;;;;;;;;;;5103163;28;20195;-78
2022/06/23 08:00:00;;;;;;;11.98;8.43;;;;;;;;;;5101515;28;20226;-77
2022/06/23 08:02:31;;;;;;;12.45;7.95;;;;;;;;;;5113696;28;20197;-78
2022/06/23 08:05:03;;;;;;;12.85;7.80;;;;;;;;;;5119490;27;20233;-77
2022/06/23 08:07:31;;;;;;;12.13;8.45;;;;;;;;;;5139450;27;20228;-78
2022/06/23 08:10:01;;;;;;;11.18;8.60;;;;;;;;;;5133407;27;20254;-77
2022/06/23 08:18:09;;;;;;;7.82;6.53;;;;;;;;;;5134950;27;20191;-78
2022/06/23 08:20:40;;;;;;;7.72;5.10;;;;;;;;;;5134090;27;20201;-78
2022/06/23 08:23:08;;;;;;;8.43;5.43;;;;;;;;;;5135096;27;20236;-78
2022/06/23 08:25:35;;;;;;;7.68;5.75;;;;;;;;;;5148836;27;20748;-77
2022/06/23 08:28:02;;;;;;;10.05;5.75;;;;;;;;;;5147198;27;20196;-77
2022/06/23 08:30:30;;;;;;;10.73;5.63;;;;;;;;;;5135544;27;20244;-77
2022/06/23 08:32:57;;;;;;;6.47;4.80;;;;;;;;;;5136674;27;20220;-77
2022/06/23 08:35:30;;;;;;;11.02;5.15;;;;;;;;;;5137769;27;20972;-77
2022/06/23 08:37:59;;;;;;;10.15;5.05;;;;;;;;;;5125933;27;20197;-78
2022/06/23 08:40:33;;;;;;;6.20;4.60;;;;;;;;;;5133992;27;20220;-77
2022/06/23 08:43:08;;;;;;;7.82;4.82;;;;;;;;;;5128692;27;20284;-77
2022/06/23 08:45:40;;;;;;;7.63;4.70;;;;;;;;;;5134032;27;20291;-77
2022/06/23 08:48:11;;;;;;;6.80;4.40;;;;;;;;;;5133858;27;20232;-77
2022/06/23 08:50:41;;;;;;;6.72;4.47;;;;;;;;;;5133139;27;20201;-77
2022/06/23 08:53:12;;;;;;;6.78;4.75;;;;;;;;;;5133933;27;20205;-77
2022/06/23 08:55:42;;;;;;;8.13;4.47;;;;;;;;;;5137469;27;20304;-77
2022/06/23 08:58:13;;;;;;;6.63;4.82;;;;;;;;;;5133238;27;20198;-78
2022/06/23 09:00:43;;;;;;;9.25;4.07;;;;;;;;;;5121320;27;20269;-78
2022/06/23 09:03:12;;;;;;;5.78;3.78;;;;;;;;;;5133757;27;20230;-77
2022/06/23 09:05:44;;;;;;;6.82;3.75;;;;;;;;;;5126561;27;20292;-78
2022/06/23 09:08:15;;;;;;;6.03;3.33;;;;;;;;;;5109560;27;20201;-78
2022/06/23 09:10:45;;;;;;;4.32;3.15;;;;;;;;;;5110632;27;20383;-78
2022/06/23 09:13:19;;;;;;;5.13;2.90;;;;;;;;;;5098344;27;20237;-78
2022/06/23 09:16:01;;;;;;;6.75;3.22;;;;;;;;;;5109145;27;20523;-77
2022/06/23 09:18:45;;;;;;;4.35;3.22;;;;;;;;;;5119795;27;20197;-78
2022/06/23 09:21:26;;;;;;;3.78;2.90;;;;;;;;;;5113534;27;20193;-78
2022/06/23 09:24:08;;;;;;;2.72;2.47;;;;;;;;;;5109241;27;20198;-78
2022/06/23 09:26:40;;;;;;;5.07;2.58;;;;;;;;;;5097043;27;21034;-78
2022/06/23 09:29:12;;;;;;;3.45;2.70;;;;;;;;;;5111547;27;20197;-78
2022/06/23 09:31:47;;;;;;;5.50;2.90;;;;;;;;;;5095883;27;20193;-78
2022/06/23 09:34:19;;;;;;;4.43;2.90;;;;;;;;;;5100222;27;20220;-78
2022/06/23 09:36:56;;;;;;;6.13;3.30;;;;;;;;;;5098681;27;20312;-78
2022/06/23 09:39:33;;;;;;;3.47;3.10;;;;;;;;;;5088508;27;20193;-78
2022/06/23 09:42:16;;;;;;;3.17;2.60;;;;;;;;;;5097179;27;20224;-78
2022/06/23 09:44:54;;;;;;;5.45;2.80;;;;;;;;;;5115007;27;20300;-78
2022/06/23 09:47:33;;;;;;;4.80;2.88;;;;;;;;;;5113377;27;20631;-78
2022/06/23 09:50:09;;;;;;;16.17;13.57;;;;;;;;;;5110808;27;20280;-78
2022/06/23 09:52:46;;;;;;;5.60;4.15;;;;;;;;;;5109878;28;20198;-78
2022/06/23 09:55:24;;;;;;;4.15;2.97;;;;;;;;;;5123274;27;20244;-78
2022/06/23 09:58:09;;;;;;;4.88;2.75;;;;;;;;;;5115724;27;20201;-78
2022/06/23 10:00:44;;;;;;;4.43;3.08;;;;;;;;;;5117232;27;20232;-78
2022/06/23 10:03:23;;;;;;;3.33;2.60;;;;;;;;;;5113350;27;20313;-78
2022/06/23 10:06:08;;;;;;;3.67;3.20;;;;;;;;;;5105927;28;20312;-77
2022/06/23 10:08:47;;;;;;;4.65;2.85;;;;;;;;;;5108578;28;20289;-78
2022/06/23 10:11:23;;;;;;;5.28;3.20;;;;;;;;;;5084883;28;20248;-77
2022/06/23 10:13:54;;;;;;;3.58;2.50;;;;;;;;;;5101969;28;20285;-77
2022/06/23 10:16:31;;;;;;;3.47;2.60;;;;;;;;;;5109307;28;20304;-76
2022/06/23 10:19:08;;;;;;;3.33;2.55;;;;;;;;;;5104926;28;20284;-77
2022/06/23 10:21:38;;;;;;;3.83;2.58;;;;;;;;;;5111531;27;20201;-77
2022/06/23 10:24:14;;;;;;;2.90;2.60;;;;;;;;;;5105987;28;20232;-77
2022/06/23 10:26:47;;;;;;;3.45;2.90;;;;;;;;;;5101973;28;20200;-78
2022/06/23 10:29:35;;;;;;;4.78;2.70;;;;;;;;;;5096886;28;20199;-77
2022/06/23 10:32:12;;;;;;;2.70;2.50;;;;;;;;;;5100195;27;20293;-78
2022/06/23 10:34:44;;;;;;;2.50;2.30;;;;;;;;;;5101208;28;20323;-78
2022/06/23 10:37:23;;;;;;;4.28;2.40;;;;;;;;;;5108345;28;20233;-78
2022/06/23 10:39:59;;;;;;;3.42;2.20;;;;;;;;;;5098407;28;20690;-78
2022/06/23 10:42:38;;;;;;;5.05;2.60;;;;;;;;;;5107072;28;20289;-79
2022/06/23 10:45:14;;;;;;;4.55;2.35;;;;;;;;;;5105633;28;20222;-79
2022/06/23 10:47:56;;;;;;;3.97;2.25;;;;;;;;;;5101006;28;20297;-79
2022/06/23 10:50:28;;;;;;;4.50;2.60;;;;;;;;;;5101493;28;20281;-79
2022/06/23 10:53:05;;;;;;;2.75;2.28;;;;;;;;;;5101844;28;20745;-79
2022/06/23 10:55:47;;;;;;;4.10;2.47;;;;;;;;;;5099811;28;20751;-79
2022/06/23 10:58:24;;;;;;;3.03;2.42;;;;;;;;;;5105111;28;20233;-79
2022/06/23 11:00:56;;;;;;;3.42;2.17;;;;;;;;;;5105301;28;20308;-79
2022/06/23 11:03:46;;;;;;;4.28;2.42;;;;;;;;;;5109279;28;20669;-78
2022/06/23 11:06:25;;;;;;;3.70;2.70;;;;;;;;;;5117362;28;20263;-78
2022/06/23 11:09:02;;;;;;;2.72;2.20;;;;;;;;;;5129017;28;20226;-79
2022/06/23 11:11:40;;;;;;;3.08;2.20;;;;;;;;;;5128452;27;20764;-79
2022/06/23 11:14:12;;;;;;;2.60;2.38;;;;;;;;;;5129707;27;20257;-79
2022/06/23 11:16:43;;;;;;;3.45;2.50;;;;;;;;;;5126897;27;20217;-78
2022/06/23 11:19:18;;;;;;;4.40;2.33;;;;;;;;;;5130302;27;20284;-79
2022/06/23 11:21:52;;;;;;;4.55;2.60;;;;;;;;;;5129455;27;20586;-80
2022/06/23 11:24:26;;;;;;;3.15;2.58;;;;;;;;;;5133077;27;20279;-81
2022/06/23 11:26:59;;;;;;;2.55;2.35;;;;;;;;;;5133391;27;20293;-80
2022/06/23 11:29:43;;;;;;;4.93;2.40;;;;;;;;;;5131141;27;20232;-78
2022/06/23 11:32:18;;;;;;;5.60;2.42;;;;;;;;;;5115725;27;20632;-78
2022/06/23 11:34:52;;;;;;;3.10;2.28;;;;;;;;;;5132927;27;20203;-77
2022/06/23 11:37:26;;;;;;;3.08;2.10;;;;;;;;;;5131138;27;20249;-78
2022/06/23 11:40:08;;;;;;;4.05;2.38;;;;;;;;;;5132896;27;20662;-79
2022/06/23 11:42:50;;;;;;;3.25;2.13;;;;;;;;;;5111676;27;20232;-79
2022/06/23 11:45:22;;;;;;;6.78;2.17;;;;;;;;;;5127948;27;20245;-79
2022/06/23 11:47:57;;;;;;;3.33;2.30;;;;;;;;;;5131845;27;20736;-80
2022/06/23 11:50:29;;;;;;;4.22;2.28;;;;;;;;;;5132779;27;20280;-79
2022/06/23 11:53:03;;;;;;;4.05;2.45;;;;;;;;;;5134756;27;20201;-80
2022/06/23 11:55:33;;;;;;;2.60;1.95;;;;;;;;;;5130755;27;20229;-80
2022/06/23 11:58:11;;;;;;;4.22;2.03;;;;;;;;;;5131504;27;20251;-80
2022/06/23 12:00:43;;;;;;;3.58;1.85;;;;;;;;;;5131981;27;20189;-80
2022/06/23 12:03:20;;;;;;;3.63;2.00;;;;;;;;;;5132045;27;20288;-80
2022/06/23 12:05:53;;;;;;;2.88;2.05;;;;;;;;;;5118605;27;20328;-79
2022/06/23 12:08:29;;;;;;;4.13;2.17;;;;;;;;;;5111183;28;20198;-79
2022/06/23 12:10:57;;;;;;;2.47;2.00;;;;;;;;;;5111831;28;20695;-78
2022/06/23 12:13:25;;;;;;;2.95;1.95;;;;;;;;;;5110121;28;20233;-78
2022/06/23 12:15:55;;;;;;;3.03;2.10;;;;;;;;;;5110453;28;20222;-80
2022/06/23 12:18:25;;;;;;;3.10;1.98;;;;;;;;;;5112181;28;20255;-79
2022/06/23 12:20:54;;;;;;;3.85;1.90;;;;;;;;;;5105244;28;20647;-79
2022/06/23 12:23:24;;;;;;;1.90;1.70;;;;;;;;;;5111075;28;20233;-80
2022/06/23 12:25:57;;;;;;;3.35;2.00;;;;;;;;;;5111674;28;20194;-79
2022/06/23 12:28:29;;;;;;;2.50;1.83;;;;;;;;;;5111988;27;20194;-79
2022/06/23 12:30:58;;;;;;;3.15;1.90;;;;;;;;;;5108221;28;20285;-79
2022/06/23 12:33:29;;;;;;;3.67;2.10;;;;;;;;;;5105936;28;20288;-79
2022/06/23 12:36:08;;;;;;;3.60;2.00;;;;;;;;;;5113265;28;20256;-79
2022/06/23 12:38:44;;;;;;;3.30;2.20;;;;;;;;;;5112427;27;20243;-79
2022/06/23 12:41:13;;;;;;;2.58;2.15;;;;;;;;;;5111147;28;20201;-79
2022/06/23 12:43:45;;;;;;;5.65;2.30;;;;;;;;;;5114108;28;20225;-79
2022/06/23 12:46:16;;;;;;;4.55;1.67;;;;;;;;;;5113059;28;20205;-79
2022/06/23 12:49:01;;;;;;;3.72;1.98;;;;;;;;;;5113866;28;20303;-79
2022/06/23 12:51:34;;;;;;;4.60;1.73;;;;;;;;;;5112011;28;20595;-79
2022/06/23 12:54:11;;;;;;;3.80;1.67;;;;;;;;;;5111951;27;20645;-79
2022/06/23 12:56:49;;;;;;;2.75;1.80;;;;;;;;;;5112809;28;20221;-79
2022/06/23 12:59:20;;;;;;;4.18;1.80;;;;;;;;;;5112980;27;20285;-79
2022/06/23 13:01:49;;;;;;;2.50;1.50;;;;;;;;;;5113101;27;20194;-79
2022/06/23 13:04:23;;;;;;;3.42;1.70;;;;;;;;;;5112504;28;20325;-79
2022/06/23 13:06:54;;;;;;;2.83;1.70;;;;;;;;;;5118762;27;20271;-79
2022/06/23 13:09:27;;;;;;;3.70;1.67;;;;;;;;;;5109739;28;20212;-79
2022/06/23 13:11:58;;;;;;;1.60;1.50;;;;;;;;;;5111815;28;20619;-79
2022/06/23 13:14:29;;;;;;;3.45;1.98;;;;;;;;;;5112325;28;20225;-79
2022/06/23 13:16:59;;;;;;;2.72;1.70;;;;;;;;;;5115665;27;20253;-79
2022/06/23 13:19:30;;;;;;;2.20;1.67;;;;;;;;;;5111420;28;20281;-78
2022/06/23 13:22:06;;;;;;;2.38;1.40;;;;;;;;;;5113509;28;20225;-79
2022/06/23 13:24:35;;;;;;;3.17;1.85;;;;;;;;;;5111727;28;20646;-78
2022/06/23 13:27:08;;;;;;;2.15;1.48;;;;;;;;;;5112607;28;20186;-80
2022/06/23 13:29:38;;;;;;;5.28;1.50;;;;;;;;;;5105093;28;20228;-79
2022/06/23 13:32:10;;;;;;;2.45;1.40;;;;;;;;;;5112053;28;20209;-79
2022/06/23 13:34:40;;;;;;;3.45;1.65;;;;;;;;;;5110282;28;20225;-79
2022/06/23 13:37:12;;;;;;;1.58;1.48;;;;;;;;;;5110598;28;20256;-79
2022/06/23 13:39:44;;;;;;;3.47;1.50;;;;;;;;;;5113238;27;20211;-79
2022/06/23 13:42:15;;;;;;;2.53;1.60;;;;;;;;;;5111079;28;20225;-79
2022/06/23 13:44:46;;;;;;;2.85;1.55;;;;;;;;;;5110779;28;20249;-78
2022/06/23 13:47:17;;;;;;;1.92;1.73;;;;;;;;;;5110472;27;20284;-78
2022/06/23 13:49:48;;;;;;;1.73;1.50;;;;;;;;;;5110687;28;20206;-79
2022/06/23 13:52:18;;;;;;;1.85;1.27;;;;;;;;;;5111363;28;20288;-78
2022/06/23 13:54:49;;;;;;;2.47;1.50;;;;;;;;;;5101593;28;20280;-78
2022/06/23 13:57:22;;;;;;;2.40;1.60;;;;;;;;;;5111170;28;20628;-80
2022/06/23 13:59:54;;;;;;;3.58;1.48;;;;;;;;;;5110802;28;20258;-79
2022/06/23 14:02:27;;;;;;;2.72;1.50;;;;;;;;;;5107490;28;20204;-79
2022/06/23 14:04:58;;;;;;;2.40;1.60;;;;;;;;;;5111807;27;20217;-79
2022/06/23 14:07:29;;;;;;;2.72;1.60;;;;;;;;;;5109283;27;20334;-80
2022/06/23 14:09:59;;;;;;;3.60;1.58;;;;;;;;;;5103037;28;20391;-79
2022/06/23 14:12:28;;;;;;;2.80;1.50;;;;;;;;;;5110773;27;20283;-79
2022/06/23 14:14:58;;;;;;;3.25;1.83;;;;;;;;;;5110794;27;20585;-79
2022/06/23 14:17:29;;;;;;;2.38;1.50;;;;;;;;;;5109142;27;20304;-78
2022/06/23 14:20:01;;;;;;;1.98;1.45;;;;;;;;;;5116866;27;20198;-80
2022/06/23 14:22:36;;;;;;;3.53;1.50;;;;;;;;;;5101182;28;20195;-79
2022/06/23 14:25:08;;;;;;;3.60;1.52;;;;;;;;;;5106887;28;20250;-78
2022/06/23 14:27:41;;;;;;;2.80;1.50;;;;;;;;;;5075986;28;20204;-78
2022/06/23 14:30:13;;;;;;;1.63;1.20;;;;;;;;;;5102506;28;20708;-78
2022/06/23 14:32:45;;;;;;;2.88;1.48;;;;;;;;;;5101462;27;20281;-79
2022/06/23 14:35:15;;;;;;;2.55;1.40;;;;;;;;;;5104799;28;20225;-79
2022/06/23 14:37:46;;;;;;;3.10;1.48;;;;;;;;;;5111518;28;20321;-79
2022/06/23 14:40:16;;;;;;;2.90;1.70;;;;;;;;;;5107172;28;20297;-80
2022/06/23 14:43:07;;;;;;;2.20;1.40;;;;;;;;;;5106582;28;20243;-80
2022/06/23 14:45:47;;;;;;;2.38;1.33;;;;;;;;;;5097407;27;20312;-77
2022/06/23 14:48:25;;;;;;;3.60;1.63;;;;;;;;;;5097513;28;20222;-77
2022/06/23 14:50:55;;;;;;;1.70;1.30;;;;;;;;;;5095169;28;20303;-77
2022/06/23 14:53:29;;;;;;;2.05;1.20;;;;;;;;;;5092911;28;20190;-77
2022/06/23 14:56:03;;;;;;;1.75;1.35;;;;;;;;;;5102912;28;20195;-77
2022/06/23 14:58:39;;;;;;;2.75;1.50;;;;;;;;;;5104871;28;20766;-78
2022/06/23 15:01:09;;;;;;;2.15;1.30;;;;;;;;;;5095501;28;20218;-79
2022/06/23 15:03:41;;;;;;;2.30;1.30;;;;;;;;;;5098341;28;20217;-78
2022/06/23 15:06:16;;;;;;;2.38;1.63;;;;;;;;;;5121390;27;20316;-78